Time;durP1;ratioP1;P1;durP2;ratioP2;P2;SDS_P1;SDS_P2;PMS_P1;PMS_P2;Temp;Humidity;BMP_temperature;BMP_pressure;BME280_temperature;BME280_humidity;BME280_pressure;Samples;Min_cycle;Max_cycle;Signal;HPM_P1;HPM_P2
2023/12/01 00:00:35;;;;;;;94.60;33.87;;;;;1.00;99776.00;;;;10104010;29;20230;-78
2023/12/01 00:05:36;;;;;;;95.53;32.77;;;;;1.00;99783.00;;;;10124232;29;20241;-79
2023/12/01 00:10:38;;;;;;;97.73;32.67;;;;;1.00;99787.00;;;;10089523;29;20251;-78
2023/12/01 00:15:39;;;;;;;98.03;31.87;;;;;1.00;99788.00;;;;10138946;29;20262;-79
2023/12/01 00:20:40;;;;;;;102.30;32.47;;;;;1.00;99789.00;;;;10116019;29;20232;-78
2023/12/01 00:25:41;;;;;;;92.20;30.70;;;;;1.00;99789.00;;;;10103445;29;20226;-78
2023/12/01 00:30:42;;;;;;;79.10;29.90;;;;;0.90;99781.00;;;;10103766;29;20262;-78
2023/12/01 00:35:43;;;;;;;71.77;28.67;;;;;0.70;99783.00;;;;10116972;29;20971;-79
2023/12/01 00:40:45;;;;;;;75.63;29.30;;;;;0.50;99783.00;;;;10130474;29;20601;-79
2023/12/01 00:45:46;;;;;;;83.80;30.27;;;;;0.50;99796.00;;;;10121981;29;20228;-77
2023/12/01 00:50:47;;;;;;;101.53;28.67;;;;;0.60;99793.00;;;;10150488;29;20221;-78
2023/12/01 00:55:48;;;;;;;87.57;30.80;;;;;0.60;99795.00;;;;10131860;29;20326;-78
2023/12/01 01:00:49;;;;;;;96.93;29.70;;;;;0.70;99804.00;;;;10128299;29;20326;-78
2023/12/01 01:05:51;;;;;;;88.07;30.13;;;;;0.80;99813.00;;;;10161873;28;20282;-78
2023/12/01 01:10:54;;;;;;;96.57;33.10;;;;;0.80;99805.00;;;;10158838;29;20617;-78
2023/12/01 01:15:55;;;;;;;75.20;30.83;;;;;0.80;99805.00;;;;10118342;29;20318;-78
2023/12/01 01:20:56;;;;;;;97.03;34.17;;;;;0.80;99808.00;;;;10142562;29;20784;-79
2023/12/01 01:25:58;;;;;;;84.77;32.20;;;;;0.90;99817.00;;;;10131896;29;20290;-78
2023/12/01 01:30:59;;;;;;;93.17;34.47;;;;;0.90;99811.00;;;;10136792;29;20234;-79
2023/12/01 01:36:00;;;;;;;94.37;34.00;;;;;0.90;99821.00;;;;10112255;29;20236;-78
2023/12/01 01:41:02;;;;;;;94.50;33.43;;;;;0.90;99819.00;;;;10128404;29;20231;-79
2023/12/01 01:46:09;;;;;;;95.90;33.37;;;;;0.90;99818.00;;;;10119145;29;20686;-79
2023/12/01 01:51:11;;;;;;;89.70;32.37;;;;;0.90;99818.00;;;;10133122;29;20238;-78
2023/12/01 01:56:12;;;;;;;86.60;31.67;;;;;0.90;99811.00;;;;10089340;29;20677;-83
2023/12/01 02:01:14;;;;;;;96.60;34.07;;;;;0.80;99823.00;;;;10155479;29;20223;-87
2023/12/01 02:06:16;;;;;;;96.07;32.27;;;;;0.80;99824.00;;;;10135503;29;20275;-85
2023/12/01 02:11:17;;;;;;;91.00;32.83;;;;;0.80;99831.00;;;;10140627;29;20231;-86
2023/12/01 02:16:19;;;;;;;98.63;32.73;;;;;0.80;99826.00;;;;10147545;29;20235;-87
2023/12/01 02:21:24;;;;;;;86.43;33.07;;;;;0.90;99827.00;;;;10153245;29;20290;-85
2023/12/01 02:26:25;;;;;;;97.87;35.73;;;;;0.90;99826.00;;;;10154961;29;20231;-85
2023/12/01 02:31:27;;;;;;;103.33;36.37;;;;;0.90;99833.00;;;;10146781;29;20286;-86
2023/12/01 02:36:28;;;;;;;95.00;36.20;;;;;0.90;99839.00;;;;10132010;29;20226;-85
2023/12/01 02:41:29;;;;;;;102.13;35.57;;;;;0.90;99847.00;;;;10135828;29;20238;-86
2023/12/01 02:46:30;;;;;;;89.80;36.70;;;;;1.00;99836.00;;;;10140275;29;20242;-85
2023/12/01 02:51:32;;;;;;;94.73;36.67;;;;;0.90;99829.00;;;;10133103;29;20252;-86
2023/12/01 02:56:33;;;;;;;99.80;35.57;;;;;0.90;99833.00;;;;10144833;29;20242;-85
2023/12/01 03:01:34;;;;;;;97.10;33.80;;;;;0.90;99842.00;;;;10164340;29;20751;-85
2023/12/01 03:06:35;;;;;;;87.63;34.87;;;;;0.80;99837.00;;;;10139594;29;20249;-85
2023/12/01 03:11:37;;;;;;;91.43;35.43;;;;;0.80;99842.00;;;;10173692;29;20259;-85
2023/12/01 03:16:38;;;;;;;94.27;36.40;;;;;0.80;99838.00;;;;10138961;29;20318;-84
2023/12/01 03:21:40;;;;;;;104.80;37.97;;;;;0.90;99842.00;;;;10104761;29;20309;-86
2023/12/01 03:26:41;;;;;;;104.90;37.33;;;;;0.80;99842.00;;;;10125602;29;20223;-85
2023/12/01 03:31:42;;;;;;;98.20;37.77;;;;;0.80;99851.00;;;;10127274;29;20221;-85
2023/12/01 03:36:43;;;;;;;96.97;36.80;;;;;0.80;99835.00;;;;10150418;29;20238;-84
2023/12/01 03:41:48;;;;;;;95.03;37.60;;;;;0.80;99850.00;;;;10143985;28;20221;-84
2023/12/01 03:46:50;;;;;;;93.77;37.40;;;;;0.80;99864.00;;;;10105682;29;20254;-85
2023/12/01 03:51:54;;;;;;;95.80;36.20;;;;;0.80;99878.00;;;;10098549;29;20223;-85
2023/12/01 03:56:55;;;;;;;92.37;37.03;;;;;0.80;99878.00;;;;10114178;29;20242;-85
2023/12/01 04:01:56;;;;;;;100.17;39.10;;;;;0.80;99877.00;;;;10102189;29;20298;-86
2023/12/01 04:06:57;;;;;;;96.37;38.13;;;;;0.80;99887.00;;;;10119670;29;20230;-86
2023/12/01 04:11:58;;;;;;;97.47;39.20;;;;;0.70;99888.00;;;;10164924;29;20301;-83
2023/12/01 04:17:08;;;;;;;92.97;39.53;;;;;0.70;99904.00;;;;10131263;29;20253;-85
2023/12/01 04:22:10;;;;;;;89.47;37.20;;;;;0.70;99905.00;;;;10135547;29;20246;-86
2023/12/01 04:27:11;;;;;;;87.93;38.47;;;;;0.70;99907.00;;;;10116701;29;20712;-86
2023/12/01 04:32:12;;;;;;;96.70;37.60;;;;;0.70;99915.00;;;;10140098;29;20322;-86
2023/12/01 04:37:15;;;;;;;107.90;39.93;;;;;0.70;99920.00;;;;10118062;29;20241;-86
2023/12/01 04:42:16;;;;;;;103.47;37.80;;;;;0.70;99918.00;;;;10123086;29;20680;-86
2023/12/01 04:47:18;;;;;;;100.60;38.00;;;;;0.70;99921.00;;;;10105168;29;20233;-86
2023/12/01 04:52:19;;;;;;;99.90;36.27;;;;;0.60;99906.00;;;;10117613;29;20963;-88
2023/12/01 04:57:21;;;;;;;104.77;37.20;;;;;0.60;99917.00;;;;10107512;29;20325;-86
2023/12/01 05:02:23;;;;;;;88.80;33.27;;;;;0.60;99930.00;;;;10103768;29;20228;-86
2023/12/01 05:07:30;;;;;;;95.37;34.27;;;;;0.60;99933.00;;;;10138329;29;20586;-87
2023/12/01 05:12:31;;;;;;;84.47;32.50;;;;;0.50;99933.00;;;;10104368;29;20314;-86
2023/12/01 05:17:32;;;;;;;80.53;31.57;;;;;0.50;99937.00;;;;10108533;29;20588;-85
2023/12/01 05:22:33;;;;;;;80.73;32.13;;;;;0.50;99943.00;;;;10106581;29;20381;-86
2023/12/01 05:27:34;;;;;;;76.73;29.37;;;;;0.50;99943.00;;;;10087175;29;20294;-86
2023/12/01 05:32:36;;;;;;;72.47;29.90;;;;;0.40;99951.00;;;;10127603;29;20868;-88
2023/12/01 05:37:39;;;;;;;79.20;30.83;;;;;0.40;99961.00;;;;10114470;29;20254;-84
2023/12/01 05:42:44;;;;;;;71.20;28.50;;;;;0.50;99956.00;;;;10153847;29;20398;-85
2023/12/01 05:47:46;;;;;;;71.47;27.77;;;;;0.50;99954.00;;;;10139747;29;20229;-85
2023/12/01 05:52:51;;;;;;;68.43;29.80;;;;;0.50;99956.00;;;;10127660;29;20227;-85
2023/12/01 05:57:53;;;;;;;75.40;29.70;;;;;0.40;99963.00;;;;10143620;29;20231;-85
2023/12/01 06:02:57;;;;;;;78.07;28.83;;;;;0.40;99970.00;;;;10133727;29;20413;-86
2023/12/01 06:08:00;;;;;;;68.00;28.60;;;;;0.40;99969.00;;;;10142657;29;20234;-85
2023/12/01 06:13:03;;;;;;;66.93;26.30;;;;;0.40;99979.00;;;;10135939;29;20224;-87
2023/12/01 06:18:04;;;;;;;71.17;27.30;;;;;0.40;99970.00;;;;10129012;29;20250;-83
2023/12/01 06:47:29;;;;;;;65.53;26.33;;;;;0.30;99998.00;;;;10883982;23;20251;-79
2023/12/01 06:52:31;;;;;;;65.77;26.47;;;;;0.30;100011.00;;;;10140106;28;20240;-75
2023/12/01 06:57:40;;;;;;;52.93;22.93;;;;;0.30;100009.00;;;;10104287;29;20231;-76
2023/12/01 07:02:42;;;;;;;66.03;26.63;;;;;0.20;100008.00;;;;10141380;29;20227;-79
2023/12/01 07:07:43;;;;;;;66.67;25.97;;;;;0.20;100009.00;;;;10098752;29;20282;-75
2023/12/01 07:12:45;;;;;;;68.37;27.17;;;;;0.10;100006.00;;;;10118143;29;20231;-77
2023/12/01 07:17:54;;;;;;;61.43;25.00;;;;;0.10;100012.00;;;;10113484;29;20231;-75
2023/12/01 07:22:55;;;;;;;72.03;26.67;;;;;0.10;100019.00;;;;10115327;29;20234;-77
2023/12/01 07:27:58;;;;;;;73.37;27.10;;;;;0.10;100019.00;;;;10140681;29;20237;-77
2023/12/01 07:33:00;;;;;;;76.50;27.40;;;;;0.10;100016.00;;;;10125217;29;20685;-75
2023/12/01 07:38:04;;;;;;;76.53;29.23;;;;;0.10;100027.00;;;;10138061;29;21178;-75
2023/12/01 07:43:09;;;;;;;70.70;27.33;;;;;0.10;100026.00;;;;10109156;29;20736;-76
2023/12/01 07:48:10;;;;;;;73.60;27.73;;;;;0.10;100025.00;;;;10136924;29;20229;-75
2023/12/01 07:53:12;;;;;;;76.27;27.90;;;;;0.00;100037.00;;;;10124007;29;20234;-79
2023/12/01 07:58:13;;;;;;;78.40;29.07;;;;;0.00;100037.00;;;;10127973;29;20340;-78
2023/12/01 08:03:14;;;;;;;78.93;28.63;;;;;0.00;100032.00;;;;10132314;28;20230;-78
2023/12/01 08:08:16;;;;;;;83.80;30.73;;;;;0.10;100044.00;;;;10094616;29;20226;-79
2023/12/01 08:13:17;;;;;;;77.30;29.13;;;;;0.10;100050.00;;;;10130425;29;20345;-78
2023/12/01 08:18:18;;;;;;;81.47;30.33;;;;;0.10;100048.00;;;;10123101;29;20233;-78
2023/12/01 08:23:19;;;;;;;77.60;28.03;;;;;0.20;100056.00;;;;10109654;29;20231;-77
2023/12/01 08:28:24;;;;;;;75.80;30.47;;;;;0.20;100058.00;;;;10099066;28;20227;-78
2023/12/01 08:33:25;;;;;;;77.93;28.63;;;;;0.20;100057.00;;;;10121788;29;20231;-78
2023/12/01 08:38:27;;;;;;;77.10;30.37;;;;;0.30;100060.00;;;;10121030;29;20289;-78
2023/12/01 08:43:28;;;;;;;80.97;30.27;;;;;0.30;100068.00;;;;10115964;28;20284;-77
2023/12/01 08:48:32;;;;;;;75.20;29.20;;;;;0.30;100074.00;;;;10111061;29;20286;-78
2023/12/01 08:53:34;;;;;;;74.50;30.47;;;;;0.30;100069.00;;;;10119837;29;20327;-77
2023/12/01 08:58:35;;;;;;;74.60;29.83;;;;;0.30;100079.00;;;;10131266;29;20265;-77
2023/12/01 09:03:36;;;;;;;75.07;28.93;;;;;0.40;100087.00;;;;10135342;29;20231;-79
2023/12/01 09:08:38;;;;;;;77.47;32.13;;;;;0.40;100079.00;;;;10144305;29;20233;-76
2023/12/01 09:13:42;;;;;;;74.60;30.50;;;;;0.50;100090.00;;;;10115343;29;20294;-78
2023/12/01 09:18:44;;;;;;;76.70;28.50;;;;;0.50;100107.00;;;;10138151;28;20226;-77
2023/12/01 09:23:45;;;;;;;84.63;33.63;;;;;0.50;100107.00;;;;10114009;29;20259;-78
2023/12/01 09:28:48;;;;;;;78.37;31.03;;;;;0.70;100105.00;;;;10133280;29;20227;-76
2023/12/01 09:33:50;;;;;;;68.97;30.43;;;;;0.90;100115.00;;;;10110795;29;20241;-76
2023/12/01 09:38:51;;;;;;;62.03;28.97;;;;;0.90;100112.00;;;;10141038;28;20235;-77
2023/12/01 09:43:54;;;;;;;64.77;27.70;;;;;0.90;100111.00;;;;10119239;29;21257;-76
2023/12/01 09:49:05;;;;;;;63.83;28.60;;;;;0.90;100115.00;;;;10115386;29;20586;-76
2023/12/01 09:54:07;;;;;;;63.67;28.20;;;;;1.00;100113.00;;;;10120554;29;20238;-78
2023/12/01 09:59:10;;;;;;;61.13;27.93;;;;;1.00;100115.00;;;;10125104;28;20258;-78
2023/12/01 10:04:11;;;;;;;68.13;28.83;;;;;1.10;100122.00;;;;10132779;29;20688;-76
2023/12/01 10:09:25;;;;;;;56.67;28.27;;;;;1.10;100123.00;;;;10111863;29;20290;-77
2023/12/01 10:14:26;;;;;;;56.97;27.40;;;;;1.10;100122.00;;;;10141100;28;20219;-79
2023/12/01 10:19:31;;;;;;;53.43;26.57;;;;;1.10;100116.00;;;;10133259;28;20313;-86
2023/12/01 10:24:33;;;;;;;53.60;26.20;;;;;1.10;100115.00;;;;10129476;29;20234;-85
2023/12/01 10:29:35;;;;;;;50.83;25.40;;;;;1.10;100112.00;;;;10112977;29;20314;-84
2023/12/01 10:34:38;;;;;;;56.57;27.03;;;;;1.10;100118.00;;;;10122440;29;20242;-80
2023/12/01 10:39:39;;;;;;;63.17;29.23;;;;;1.20;100119.00;;;;10104763;29;20313;-80
2023/12/01 10:44:42;;;;;;;61.67;29.07;;;;;1.20;100127.00;;;;10125571;29;20258;-80
2023/12/01 10:49:45;;;;;;;70.27;30.33;;;;;1.20;100116.00;;;;10139271;28;20227;-80
2023/12/01 10:54:46;;;;;;;78.57;31.23;;;;;1.20;100121.00;;;;10097697;29;20314;-82
2023/12/01 10:59:56;;;;;;;67.47;31.40;;;;;1.40;100115.00;;;;10120894;29;20319;-83
2023/12/01 11:05:01;;;;;;;70.17;29.77;;;;;1.40;100111.00;;;;10134540;28;20269;-81
2023/12/01 11:10:31;;;;;;;68.57;28.17;;;;;1.60;100105.00;;;;10131349;29;20953;-82
2023/12/01 11:15:35;;;;;;;69.00;29.97;;;;;1.60;100101.00;;;;10120650;28;20273;-82
2023/12/01 11:20:49;;;;;;;62.67;28.90;;;;;1.60;100106.00;;;;10131974;29;20253;-82
2023/12/01 11:25:56;;;;;;;60.77;26.73;;;;;1.80;100106.00;;;;10112969;29;20515;-86
2023/12/01 11:31:09;;;;;;;56.83;27.73;;;;;1.80;100103.00;;;;10115303;29;20281;-87
2023/12/01 11:36:32;;;;;;;59.57;27.00;;;;;1.80;100109.00;;;;10140355;29;20235;-87
2023/12/01 11:41:37;;;;;;;60.20;27.27;;;;;1.90;100111.00;;;;10147208;29;20234;-85
2023/12/01 11:46:39;;;;;;;59.80;28.13;;;;;2.00;100113.00;;;;10148558;29;20223;-87
2023/12/01 11:51:43;;;;;;;57.00;27.07;;;;;2.10;100109.00;;;;10157353;28;20215;-88
2023/12/01 11:56:49;;;;;;;56.93;25.43;;;;;2.10;100122.00;;;;10144869;28;20234;-87
2023/12/01 12:01:54;;;;;;;55.90;26.27;;;;;2.20;100121.00;;;;10118168;29;20219;-87
2023/12/01 12:07:00;;;;;;;51.63;26.43;;;;;2.20;100122.00;;;;10131217;29;20218;-87
2023/12/01 12:12:05;;;;;;;61.83;26.30;;;;;2.20;100136.00;;;;10135396;28;20215;-87
2023/12/01 12:17:07;;;;;;;53.87;26.27;;;;;2.10;100130.00;;;;10143280;29;20258;-86
2023/12/01 12:22:08;;;;;;;55.27;26.93;;;;;2.20;100128.00;;;;10152844;29;20333;-86
2023/12/01 12:27:10;;;;;;;51.43;25.17;;;;;2.30;100137.00;;;;10153940;29;20231;-88
2023/12/01 12:32:11;;;;;;;49.73;25.73;;;;;2.30;100141.00;;;;10136386;29;20228;-87
2023/12/01 12:37:12;;;;;;;50.43;21.70;;;;;2.20;100139.00;;;;10146434;28;20238;-77
2023/12/01 12:42:15;;;;;;;49.13;24.70;;;;;2.20;100137.00;;;;10099686;29;20634;-76
2023/12/01 12:47:16;;;;;;;49.60;23.40;;;;;2.10;100141.00;;;;10136493;28;20239;-77
2023/12/01 12:52:18;;;;;;;50.37;23.77;;;;;2.10;100131.00;;;;10133219;29;20317;-77
2023/12/01 12:57:19;;;;;;;46.17;22.57;;;;;2.00;100129.00;;;;10126483;29;20269;-78
2023/12/01 13:02:20;;;;;;;45.57;23.37;;;;;1.90;100131.00;;;;10112698;29;20657;-80
2023/12/01 13:07:21;;;;;;;49.67;23.03;;;;;1.90;100116.00;;;;10123211;29;20231;-77
2023/12/01 13:12:23;;;;;;;51.13;22.03;;;;;2.00;100120.00;;;;10142229;28;20226;-77
2023/12/01 13:17:24;;;;;;;45.00;22.27;;;;;2.10;100113.00;;;;10127679;29;20259;-77
2023/12/01 13:22:25;;;;;;;47.63;22.83;;;;;2.10;100115.00;;;;10149916;29;20234;-78
2023/12/01 13:27:26;;;;;;;46.83;23.23;;;;;2.10;100122.00;;;;10125099;29;20242;-77
2023/12/01 13:32:29;;;;;;;47.07;21.77;;;;;2.10;100122.00;;;;10120832;29;20608;-77
2023/12/01 13:37:30;;;;;;;45.30;22.77;;;;;2.00;100114.00;;;;10100278;29;20234;-80
2023/12/01 13:42:31;;;;;;;42.43;20.80;;;;;2.00;100113.00;;;;10136104;29;20243;-78
2023/12/01 13:47:34;;;;;;;44.43;22.07;;;;;1.80;100111.00;;;;10115700;29;20231;-80
2023/12/01 13:52:36;;;;;;;45.20;21.10;;;;;1.80;100110.00;;;;10130520;28;20238;-79
2023/12/01 13:57:39;;;;;;;43.27;21.63;;;;;1.70;100114.00;;;;10118577;29;20294;-79
2023/12/01 14:02:43;;;;;;;46.30;21.10;;;;;1.60;100118.00;;;;10125639;29;20245;-79
2023/12/01 14:07:45;;;;;;;44.87;21.43;;;;;1.50;100119.00;;;;10127046;29;20907;-79
2023/12/01 14:12:46;;;;;;;47.60;21.63;;;;;1.50;100126.00;;;;10114777;29;20326;-79
2023/12/01 14:17:48;;;;;;;46.07;20.87;;;;;1.50;100128.00;;;;10120048;29;20313;-79
2023/12/01 14:22:50;;;;;;;45.00;22.60;;;;;1.40;100128.00;;;;10136076;28;20239;-80
2023/12/01 14:27:51;;;;;;;41.10;20.97;;;;;1.40;100128.00;;;;10142764;29;21049;-79
2023/12/01 14:32:52;;;;;;;49.47;22.40;;;;;1.40;100127.00;;;;10117913;29;20262;-80
2023/12/01 14:37:54;;;;;;;49.50;22.70;;;;;1.50;100140.00;;;;10121241;29;20241;-79
2023/12/01 14:42:55;;;;;;;49.97;23.27;;;;;1.50;100140.00;;;;10124685;29;20239;-79
2023/12/01 14:47:56;;;;;;;46.90;21.73;;;;;1.40;100147.00;;;;10100413;28;20932;-80
2023/12/01 14:52:58;;;;;;;47.13;22.00;;;;;1.40;100143.00;;;;10115969;28;20257;-78
2023/12/01 14:57:59;;;;;;;45.43;22.50;;;;;1.30;100148.00;;;;10099451;29;20430;-86
2023/12/01 15:03:01;;;;;;;44.07;21.63;;;;;1.30;100150.00;;;;10125614;29;20211;-86
2023/12/01 15:08:02;;;;;;;39.53;20.17;;;;;1.30;100158.00;;;;10127877;29;20223;-85
2023/12/01 15:13:03;;;;;;;44.67;22.00;;;;;1.30;100160.00;;;;10127845;29;20239;-87
2023/12/01 15:18:04;;;;;;;36.17;19.40;;;;;1.30;100160.00;;;;10131195;29;20772;-86
2023/12/01 15:23:06;;;;;;;40.50;20.07;;;;;1.30;100162.00;;;;10138086;29;20280;-85
2023/12/01 15:28:08;;;;;;;37.33;18.53;;;;;1.20;100169.00;;;;10142617;29;20262;-86
2023/12/01 15:33:09;;;;;;;39.33;20.20;;;;;1.20;100166.00;;;;10098370;29;20230;-86
2023/12/01 15:38:11;;;;;;;42.53;18.50;;;;;1.20;100164.00;;;;10111763;29;20239;-86
2023/12/01 15:43:12;;;;;;;36.07;18.10;;;;;1.20;100169.00;;;;10126622;29;20894;-86
2023/12/01 15:48:13;;;;;;;34.53;17.83;;;;;1.10;100166.00;;;;10124111;29;20249;-85
2023/12/01 15:53:14;;;;;;;34.93;18.30;;;;;1.10;100165.00;;;;10114167;29;20321;-86
2023/12/01 15:58:16;;;;;;;38.20;18.20;;;;;1.10;100184.00;;;;10113228;29;20745;-85
2023/12/01 16:03:17;;;;;;;33.13;16.00;;;;;1.10;100176.00;;;;10120404;29;20237;-85
2023/12/01 16:08:21;;;;;;;34.83;15.57;;;;;1.00;100189.00;;;;10142141;28;20227;-85
2023/12/01 16:13:23;;;;;;;34.57;15.87;;;;;0.90;100196.00;;;;10127406;29;20330;-85
2023/12/01 16:18:24;;;;;;;32.57;16.50;;;;;0.90;100199.00;;;;10123948;29;20246;-85
2023/12/01 16:23:26;;;;;;;32.23;15.63;;;;;0.80;100207.00;;;;10138512;29;20239;-85
2023/12/01 16:28:27;;;;;;;30.77;14.77;;;;;0.70;100211.00;;;;10127373;28;20236;-85
2023/12/01 16:33:28;;;;;;;35.77;15.87;;;;;0.50;100210.00;;;;10121310;29;20254;-86
2023/12/01 16:38:29;;;;;;;27.00;13.17;;;;;0.30;100209.00;;;;10128431;28;20779;-85
2023/12/01 16:43:30;;;;;;;32.20;14.53;;;;;0.10;100210.00;;;;10106726;29;21003;-85
2023/12/01 16:48:32;;;;;;;25.07;11.60;;;;;-0.10;100219.00;;;;10135764;29;20244;-84
2023/12/01 16:53:33;;;;;;;30.37;13.03;;;;;-0.20;100222.00;;;;10120110;29;20269;-85
2023/12/01 16:58:34;;;;;;;27.73;12.47;;;;;-0.30;100229.00;;;;10127204;28;20226;-84
2023/12/01 17:03:35;;;;;;;28.77;14.50;;;;;-0.50;100236.00;;;;10136940;29;20243;-84
2023/12/01 17:08:39;;;;;;;28.97;13.13;;;;;-0.60;100234.00;;;;10135751;29;20234;-83
2023/12/01 17:13:40;;;;;;;29.57;13.23;;;;;-0.70;100240.00;;;;10115783;29;20275;-84
2023/12/01 17:18:41;;;;;;;30.90;14.27;;;;;-0.70;100241.00;;;;10110236;29;20934;-77
2023/12/01 17:23:43;;;;;;;34.33;15.40;;;;;-0.80;100254.00;;;;10139197;29;20776;-79
2023/12/01 17:28:44;;;;;;;31.57;14.67;;;;;-0.90;100252.00;;;;10146088;29;20368;-78
2023/12/01 17:33:45;;;;;;;27.23;12.77;;;;;-1.00;100244.00;;;;10135039;29;20318;-80
2023/12/01 17:38:47;;;;;;;28.10;13.10;;;;;-1.00;100241.00;;;;10147951;28;20233;-80
2023/12/01 17:43:49;;;;;;;25.90;12.73;;;;;-1.10;100257.00;;;;10134545;28;20238;-78
2023/12/01 17:48:50;;;;;;;30.50;13.17;;;;;-1.10;100255.00;;;;10098142;29;20923;-76
2023/12/01 17:53:52;;;;;;;34.10;14.20;;;;;-1.20;100247.00;;;;10132849;29;20241;-78
2023/12/01 17:58:54;;;;;;;29.00;14.67;;;;;-1.20;100266.00;;;;10128660;29;20234;-77
2023/12/01 18:03:56;;;;;;;29.23;14.37;;;;;-1.30;100270.00;;;;10131450;29;20954;-76
2023/12/01 18:08:57;;;;;;;28.17;13.20;;;;;-1.30;100276.00;;;;10119060;29;20951;-80
2023/12/01 18:13:59;;;;;;;33.27;13.27;;;;;-1.40;100284.00;;;;10142918;29;20829;-78
2023/12/01 18:19:00;;;;;;;31.33;13.90;;;;;-1.40;100285.00;;;;10106545;29;20677;-77
2023/12/01 18:24:02;;;;;;;27.77;13.37;;;;;-1.40;100298.00;;;;10138480;29;20232;-75
2023/12/01 18:29:07;;;;;;;31.10;14.20;;;;;-1.50;100294.00;;;;10127238;29;20254;-76
2023/12/01 18:34:08;;;;;;;29.77;14.57;;;;;-1.40;100303.00;;;;10141845;28;20234;-77
2023/12/01 18:39:10;;;;;;;31.47;14.77;;;;;-1.30;100308.00;;;;10137538;29;20236;-80
2023/12/01 18:44:11;;;;;;;30.33;13.80;;;;;-1.20;100310.00;;;;10109048;29;20226;-79
2023/12/01 18:49:12;;;;;;;38.10;17.87;;;;;-1.10;100316.00;;;;10121834;29;20272;-76
2023/12/01 18:54:13;;;;;;;35.23;15.53;;;;;-1.00;100318.00;;;;10133690;29;20709;-77
2023/12/01 18:59:14;;;;;;;33.83;15.33;;;;;-1.00;100330.00;;;;10134879;29;20234;-78
2023/12/01 19:04:16;;;;;;;35.20;14.73;;;;;-1.00;100331.00;;;;10121306;29;20911;-77
2023/12/01 19:09:18;;;;;;;34.27;16.00;;;;;-0.90;100337.00;;;;10125696;29;20243;-79
2023/12/01 19:14:19;;;;;;;35.00;16.00;;;;;-0.90;100339.00;;;;10117861;29;21244;-77
2023/12/01 19:19:21;;;;;;;38.20;16.73;;;;;-0.80;100340.00;;;;10123150;29;20310;-78
2023/12/01 19:24:23;;;;;;;32.30;15.23;;;;;-0.80;100349.00;;;;10122944;28;20231;-78
2023/12/01 19:29:24;;;;;;;29.10;14.60;;;;;-0.70;100346.00;;;;10163162;28;20230;-77
2023/12/01 19:34:25;;;;;;;32.43;15.87;;;;;-0.70;100354.00;;;;10089369;29;20281;-76
2023/12/01 19:39:26;;;;;;;30.50;14.80;;;;;-0.70;100356.00;;;;10138334;28;20229;-80
2023/12/01 19:44:28;;;;;;;25.63;12.70;;;;;-0.70;100363.00;;;;10122847;29;20774;-80
2023/12/01 19:49:29;;;;;;;29.13;14.77;;;;;-0.80;100349.00;;;;10131796;29;20230;-80
2023/12/01 19:54:31;;;;;;;26.37;13.23;;;;;-0.80;100356.00;;;;10100511;29;20234;-80
2023/12/01 19:59:32;;;;;;;28.20;13.10;;;;;-0.80;100356.00;;;;10112803;29;20864;-80
2023/12/01 20:04:33;;;;;;;28.70;13.87;;;;;-0.90;100360.00;;;;10108518;29;20260;-80
2023/12/01 20:09:35;;;;;;;29.10;13.03;;;;;-0.90;100353.00;;;;10143207;28;20236;-80
2023/12/01 20:14:36;;;;;;;29.57;14.50;;;;;-0.90;100354.00;;;;10135262;29;20329;-81
2023/12/01 20:19:38;;;;;;;32.80;14.53;;;;;-1.00;100368.00;;;;10123588;29;20242;-80
2023/12/01 20:24:39;;;;;;;29.80;13.97;;;;;-0.90;100368.00;;;;10130839;29;20663;-80
2023/12/01 20:29:41;;;;;;;27.13;12.60;;;;;-0.90;100356.00;;;;10110534;29;20321;-79
2023/12/01 20:34:45;;;;;;;29.90;13.97;;;;;-1.00;100361.00;;;;10141776;29;20488;-79
2023/12/01 20:39:47;;;;;;;27.57;13.43;;;;;-0.90;100370.00;;;;10140782;29;21010;-80
2023/12/01 20:44:48;;;;;;;32.23;13.90;;;;;-0.90;100376.00;;;;10110416;29;20234;-80
2023/12/01 20:49:49;;;;;;;25.60;13.10;;;;;-0.90;100382.00;;;;10151421;28;20725;-82
2023/12/01 20:54:50;;;;;;;32.90;14.03;;;;;-0.90;100376.00;;;;10132213;24;20231;-80
2023/12/01 20:59:52;;;;;;;28.20;14.67;;;;;-0.80;100381.00;;;;10070508;29;20231;-80
2023/12/01 21:04:53;;;;;;;27.10;13.37;;;;;-0.90;100391.00;;;;10062144;29;20709;-79
2023/12/01 21:09:54;;;;;;;25.97;14.07;;;;;-0.90;100391.00;;;;10063956;29;20682;-79
2023/12/01 21:14:55;;;;;;;25.23;14.80;;;;;-1.00;100401.00;;;;10094440;29;20227;-79
2023/12/01 21:19:57;;;;;;;27.70;14.37;;;;;-1.00;100393.00;;;;10083179;29;20291;-80
2023/12/01 21:24:58;;;;;;;34.73;14.97;;;;;-1.00;100395.00;;;;10103571;29;20235;-80
2023/12/01 21:29:59;;;;;;;29.00;14.63;;;;;-0.90;100405.00;;;;10072514;29;20266;-80
2023/12/01 21:35:02;;;;;;;29.73;13.90;;;;;-0.90;100409.00;;;;10077575;29;20682;-78
2023/12/01 21:40:04;;;;;;;30.17;15.20;;;;;-0.90;100403.00;;;;10074036;29;20319;-80
2023/12/01 21:45:06;;;;;;;35.30;18.37;;;;;-1.10;100405.00;;;;10061185;29;20227;-80
2023/12/01 21:50:07;;;;;;;35.50;17.73;;;;;-1.20;100406.00;;;;10077101;29;20231;-80
2023/12/01 21:55:10;;;;;;;32.07;18.13;;;;;-1.30;100400.00;;;;10058652;29;20255;-80
2023/12/01 22:00:12;;;;;;;31.63;15.67;;;;;-1.40;100414.00;;;;10086054;29;20322;-83
2023/12/01 22:05:14;;;;;;;32.90;17.40;;;;;-1.50;100416.00;;;;10069155;29;20778;-82
2023/12/01 22:10:16;;;;;;;38.10;19.47;;;;;-1.50;100416.00;;;;10056413;29;20966;-82
2023/12/01 22:15:17;;;;;;;31.00;16.97;;;;;-1.50;100418.00;;;;10072112;29;20903;-82
2023/12/01 22:20:18;;;;;;;32.33;16.83;;;;;-1.60;100423.00;;;;10070083;29;20223;-82
2023/12/01 22:25:19;;;;;;;31.83;16.80;;;;;-1.60;100408.00;;;;10055435;29;21252;-82
2023/12/01 22:30:21;;;;;;;30.07;15.73;;;;;-1.60;100426.00;;;;10086545;29;20263;-83
2023/12/01 22:35:22;;;;;;;30.33;15.77;;;;;-1.70;100426.00;;;;10068394;29;21060;-82
2023/12/01 22:40:24;;;;;;;31.93;14.93;;;;;-1.70;100427.00;;;;10068628;29;20246;-82
2023/12/01 22:45:25;;;;;;;29.60;14.67;;;;;-1.80;100441.00;;;;10071157;29;20219;-82
2023/12/01 22:50:26;;;;;;;27.23;14.40;;;;;-1.80;100447.00;;;;10071067;29;20231;-82
2023/12/01 22:55:28;;;;;;;29.70;14.37;;;;;-1.80;100451.00;;;;10060398;29;20282;-83
2023/12/01 23:00:33;;;;;;;27.43;14.17;;;;;-1.80;100447.00;;;;10067766;29;20253;-82
2023/12/01 23:05:34;;;;;;;25.43;13.40;;;;;-1.80;100442.00;;;;10055607;29;20263;-82
2023/12/01 23:10:35;;;;;;;29.33;13.60;;;;;-1.80;100439.00;;;;10072694;29;20222;-83
2023/12/01 23:15:37;;;;;;;27.93;13.60;;;;;-1.80;100456.00;;;;10075104;29;20224;-83
2023/12/01 23:20:39;;;;;;;30.63;14.30;;;;;-1.80;100458.00;;;;10058297;29;20228;-83
2023/12/01 23:25:40;;;;;;;28.10;12.80;;;;;-1.80;100456.00;;;;10051837;29;20239;-83
2023/12/01 23:30:41;;;;;;;26.33;12.83;;;;;-1.80;100446.00;;;;10062171;29;20231;-83
2023/12/01 23:35:42;;;;;;;24.93;12.43;;;;;-1.80;100451.00;;;;10073374;29;20232;-83
2023/12/01 23:40:46;;;;;;;26.00;12.57;;;;;-1.80;100457.00;;;;10061079;29;21303;-82
2023/12/01 23:45:47;;;;;;;28.03;13.40;;;;;-1.90;100460.00;;;;10089713;29;20334;-83
2023/12/01 23:50:48;;;;;;;27.63;13.53;;;;;-1.90;100469.00;;;;10079601;29;20218;-82
2023/12/01 23:55:49;;;;;;;26.57;11.97;;;;;-2.10;100476.00;;;;10086228;29;20246;-82
